Current Weather

Alice Springs

Alice Springs, Australia (YBAS)

Report from: Sunday, February 5, 2023 3:00 PM AEDT
Current time: Sunday, February 5, 2023 3:33 PM AEDT

Nearby weather
Weather history
Weather forecast

Temperature28.0°C (82.4°F)
Heat index27.0°C (80.6°F)
Dew point4.0°C (39.2°F)
Winds 7 kts (3.6 m/s, 8.1 mph) Vrb
Winds variableWinds variable from Northeast (50°) to South (170°)
Visibility6.2 mi. (10 km)
Clouds Sky clear
Altimeter29.91 in.Hg (1013 mB)
Relative humidity22 %
Density altitude1,628 ft. (496 m)
Remarks Fully automated report
No clouds detected
Flight conditions Visual Meteorological Conditions
Raw dataYBAS 050400Z AUTO 12007KT 050V170 9999 // NCD 28/04 Q1013 RF00.0/000.0
An unhandled exception has occurred. See browser dev tools for details. Reload 🗙